sensor_id;sensor_type;location;lat;lon;timestamp;temperature;humidity
6758;DHT22;3416;53.074;8.822;2023-02-18T00:00:29;7.30;99.90
6758;DHT22;3416;53.074;8.822;2023-02-18T00:02:58;7.40;99.90
6758;DHT22;3416;53.074;8.822;2023-02-18T00:05:25;7.30;99.90
6758;DHT22;3416;53.074;8.822;2023-02-18T00:07:54;7.20;99.90
6758;DHT22;3416;53.074;8.822;2023-02-18T00:10:21;7.30;99.90
6758;DHT22;3416;53.074;8.822;2023-02-18T00:12:48;7.30;99.90
6758;DHT22;3416;53.074;8.822;2023-02-18T00:15:15;7.30;99.90
6758;DHT22;3416;53.074;8.822;2023-02-18T00:17:42;7.40;99.90
6758;DHT22;3416;53.074;8.822;2023-02-18T00:20:11;7.40;99.90
6758;DHT22;3416;53.074;8.822;2023-02-18T00:22:38;7.40;99.90
6758;DHT22;3416;53.074;8.822;2023-02-18T00:25:06;7.40;99.90
6758;DHT22;3416;53.074;8.822;2023-02-18T00:27:33;7.40;99.90
6758;DHT22;3416;53.074;8.822;2023-02-18T00:30:00;7.40;99.90
6758;DHT22;3416;53.074;8.822;2023-02-18T00:32:28;7.50;99.90
6758;DHT22;3416;53.074;8.822;2023-02-18T00:34:55;7.50;99.90
6758;DHT22;3416;53.074;8.822;2023-02-18T00:37:23;7.50;99.90
6758;DHT22;3416;53.074;8.822;2023-02-18T00:39:50;7.50;99.90
6758;DHT22;3416;53.074;8.822;2023-02-18T00:42:17;7.60;99.90
6758;DHT22;3416;53.074;8.822;2023-02-18T00:44:50;7.60;99.90
6758;DHT22;3416;53.074;8.822;2023-02-18T00:47:17;7.70;99.90
6758;DHT22;3416;53.074;8.822;2023-02-18T00:49:45;7.70;99.90
6758;DHT22;3416;53.074;8.822;2023-02-18T00:52:12;7.70;99.90
6758;DHT22;3416;53.074;8.822;2023-02-18T00:54:42;7.80;99.90
6758;DHT22;3416;53.074;8.822;2023-02-18T00:57:09;7.80;99.90
6758;DHT22;3416;53.074;8.822;2023-02-18T00:59:42;8.00;99.90
6758;DHT22;3416;53.074;8.822;2023-02-18T01:02:09;7.90;99.90
6758;DHT22;3416;53.074;8.822;2023-02-18T01:04:37;7.90;99.90
6758;DHT22;3416;53.074;8.822;2023-02-18T01:07:04;7.90;99.90
6758;DHT22;3416;53.074;8.822;2023-02-18T01:09:31;8.00;99.90
6758;DHT22;3416;53.074;8.822;2023-02-18T01:11:59;8.10;99.90
6758;DHT22;3416;53.074;8.822;2023-02-18T01:14:27;8.10;99.90
6758;DHT22;3416;53.074;8.822;2023-02-18T01:16:54;8.10;99.90
6758;DHT22;3416;53.074;8.822;2023-02-18T01:19:22;8.10;99.90
6758;DHT22;3416;53.074;8.822;2023-02-18T01:21:50;8.10;99.90
6758;DHT22;3416;53.074;8.822;2023-02-18T01:24:17;8.00;99.90
6758;DHT22;3416;53.074;8.822;2023-02-18T01:26:44;8.00;99.90
6758;DHT22;3416;53.074;8.822;2023-02-18T01:29:12;8.00;99.90
6758;DHT22;3416;53.074;8.822;2023-02-18T01:31:39;8.10;99.90
6758;DHT22;3416;53.074;8.822;2023-02-18T01:34:07;8.20;99.90
6758;DHT22;3416;53.074;8.822;2023-02-18T01:36:34;8.10;99.90
6758;DHT22;3416;53.074;8.822;2023-02-18T01:39:01;8.10;99.90
6758;DHT22;3416;53.074;8.822;2023-02-18T01:41:28;8.10;99.90
6758;DHT22;3416;53.074;8.822;2023-02-18T01:44:12;8.10;99.90
6758;DHT22;3416;53.074;8.822;2023-02-18T01:46:39;8.10;99.90
6758;DHT22;3416;53.074;8.822;2023-02-18T01:49:06;8.00;99.90
6758;DHT22;3416;53.074;8.822;2023-02-18T01:51:37;8.10;99.90
6758;DHT22;3416;53.074;8.822;2023-02-18T01:54:07;8.10;99.90
6758;DHT22;3416;53.074;8.822;2023-02-18T01:56:40;8.00;99.90
6758;DHT22;3416;53.074;8.822;2023-02-18T01:59:12;8.00;99.90
6758;DHT22;3416;53.074;8.822;2023-02-18T02:01:42;8.00;99.90
6758;DHT22;3416;53.074;8.822;2023-02-18T02:04:09;8.00;99.90
6758;DHT22;3416;53.074;8.822;2023-02-18T02:06:36;8.00;99.90
6758;DHT22;3416;53.074;8.822;2023-02-18T02:09:05;8.10;99.90
6758;DHT22;3416;53.074;8.822;2023-02-18T02:11:57;8.10;99.90
6758;DHT22;3416;53.074;8.822;2023-02-18T02:17:38;8.20;99.90
6758;DHT22;3416;53.074;8.822;2023-02-18T02:20:58;8.20;99.90
6758;DHT22;3416;53.074;8.822;2023-02-18T02:23:53;8.20;99.90
6758;DHT22;3416;53.074;8.822;2023-02-18T02:26:48;8.20;99.90
6758;DHT22;3416;53.074;8.822;2023-02-18T02:29:47;8.20;99.90
6758;DHT22;3416;53.074;8.822;2023-02-18T02:32:54;8.20;99.90
6758;DHT22;3416;53.074;8.822;2023-02-18T02:35:37;8.20;99.90
6758;DHT22;3416;53.074;8.822;2023-02-18T02:38:13;8.20;99.90
6758;DHT22;3416;53.074;8.822;2023-02-18T02:40:45;8.20;99.90
6758;DHT22;3416;53.074;8.822;2023-02-18T02:43:23;8.20;99.90
6758;DHT22;3416;53.074;8.822;2023-02-18T02:45:57;8.20;99.90
6758;DHT22;3416;53.074;8.822;2023-02-18T02:48:32;8.20;99.90
6758;DHT22;3416;53.074;8.822;2023-02-18T02:51:06;8.30;99.90
6758;DHT22;3416;53.074;8.822;2023-02-18T02:53:38;8.30;99.90
6758;DHT22;3416;53.074;8.822;2023-02-18T02:56:13;8.30;99.90
6758;DHT22;3416;53.074;8.822;2023-02-18T02:58:41;8.30;99.90
6758;DHT22;3416;53.074;8.822;2023-02-18T03:01:28;8.30;99.90
6758;DHT22;3416;53.074;8.822;2023-02-18T03:10:13;8.30;99.90
6758;DHT22;3416;53.074;8.822;2023-02-18T03:12:48;8.40;99.90
6758;DHT22;3416;53.074;8.822;2023-02-18T03:15:23;8.30;99.90
6758;DHT22;3416;53.074;8.822;2023-02-18T03:17:55;8.30;99.90
6758;DHT22;3416;53.074;8.822;2023-02-18T03:20:26;8.40;99.90
6758;DHT22;3416;53.074;8.822;2023-02-18T03:23:03;8.30;99.90
6758;DHT22;3416;53.074;8.822;2023-02-18T03:25:33;8.40;99.90
6758;DHT22;3416;53.074;8.822;2023-02-18T03:28:09;8.40;99.90
6758;DHT22;3416;53.074;8.822;2023-02-18T03:30:42;8.40;99.90
6758;DHT22;3416;53.074;8.822;2023-02-18T03:33:22;8.40;99.90
6758;DHT22;3416;53.074;8.822;2023-02-18T03:35:52;8.40;99.90
6758;DHT22;3416;53.074;8.822;2023-02-18T03:38:23;8.40;99.90
6758;DHT22;3416;53.074;8.822;2023-02-18T03:40:59;8.40;99.90
6758;DHT22;3416;53.074;8.822;2023-02-18T03:43:25;8.50;99.90
6758;DHT22;3416;53.074;8.822;2023-02-18T03:45:53;8.50;99.90
6758;DHT22;3416;53.074;8.822;2023-02-18T03:48:20;8.50;99.90
6758;DHT22;3416;53.074;8.822;2023-02-18T03:50:47;8.50;99.90
6758;DHT22;3416;53.074;8.822;2023-02-18T03:53:14;8.50;99.90
6758;DHT22;3416;53.074;8.822;2023-02-18T03:55:42;8.50;99.90
6758;DHT22;3416;53.074;8.822;2023-02-18T03:58:10;8.50;99.90
6758;DHT22;3416;53.074;8.822;2023-02-18T04:00:38;8.50;99.90
6758;DHT22;3416;53.074;8.822;2023-02-18T04:03:05;8.50;99.90
6758;DHT22;3416;53.074;8.822;2023-02-18T04:05:33;8.50;99.90
6758;DHT22;3416;53.074;8.822;2023-02-18T04:08:00;8.50;99.90
6758;DHT22;3416;53.074;8.822;2023-02-18T04:10:27;8.50;99.90
6758;DHT22;3416;53.074;8.822;2023-02-18T04:12:54;8.50;99.90
6758;DHT22;3416;53.074;8.822;2023-02-18T04:15:23;8.50;99.90
6758;DHT22;3416;53.074;8.822;2023-02-18T04:17:50;8.50;99.90
6758;DHT22;3416;53.074;8.822;2023-02-18T04:20:18;8.50;99.90
6758;DHT22;3416;53.074;8.822;2023-02-18T04:22:47;8.50;99.90
6758;DHT22;3416;53.074;8.822;2023-02-18T04:25:14;8.50;99.90
6758;DHT22;3416;53.074;8.822;2023-02-18T04:27:41;8.40;99.90
6758;DHT22;3416;53.074;8.822;2023-02-18T04:30:10;8.40;99.90
6758;DHT22;3416;53.074;8.822;2023-02-18T04:32:38;8.30;99.90
6758;DHT22;3416;53.074;8.822;2023-02-18T04:35:05;8.40;99.90
6758;DHT22;3416;53.074;8.822;2023-02-18T04:37:32;8.30;99.90
6758;DHT22;3416;53.074;8.822;2023-02-18T04:39:59;8.20;99.90
6758;DHT22;3416;53.074;8.822;2023-02-18T04:42:26;8.20;99.90
6758;DHT22;3416;53.074;8.822;2023-02-18T04:44:54;8.10;99.90
6758;DHT22;3416;53.074;8.822;2023-02-18T04:47:21;8.20;99.90
6758;DHT22;3416;53.074;8.822;2023-02-18T04:49:50;8.20;99.90
6758;DHT22;3416;53.074;8.822;2023-02-18T04:52:17;8.20;99.90
6758;DHT22;3416;53.074;8.822;2023-02-18T04:54:45;8.10;99.90
6758;DHT22;3416;53.074;8.822;2023-02-18T04:57:12;8.10;99.90
6758;DHT22;3416;53.074;8.822;2023-02-18T04:59:40;8.10;99.90
6758;DHT22;3416;53.074;8.822;2023-02-18T05:02:07;8.00;99.90
6758;DHT22;3416;53.074;8.822;2023-02-18T05:04:34;8.00;99.90
6758;DHT22;3416;53.074;8.822;2023-02-18T05:07:02;8.00;99.90
6758;DHT22;3416;53.074;8.822;2023-02-18T05:09:29;8.00;99.90
6758;DHT22;3416;53.074;8.822;2023-02-18T05:11:56;7.90;99.90
6758;DHT22;3416;53.074;8.822;2023-02-18T05:14:23;7.90;99.90
6758;DHT22;3416;53.074;8.822;2023-02-18T05:16:50;7.90;99.90
6758;DHT22;3416;53.074;8.822;2023-02-18T05:19:17;7.90;99.90
6758;DHT22;3416;53.074;8.822;2023-02-18T05:21:44;7.80;99.90
6758;DHT22;3416;53.074;8.822;2023-02-18T05:24:12;7.90;99.90
6758;DHT22;3416;53.074;8.822;2023-02-18T05:26:40;7.80;99.90
6758;DHT22;3416;53.074;8.822;2023-02-18T05:29:07;7.80;99.90
6758;DHT22;3416;53.074;8.822;2023-02-18T05:31:36;7.70;99.90
6758;DHT22;3416;53.074;8.822;2023-02-18T05:34:03;7.70;99.90
6758;DHT22;3416;53.074;8.822;2023-02-18T05:36:30;7.70;99.90
6758;DHT22;3416;53.074;8.822;2023-02-18T05:38:57;7.70;99.90
6758;DHT22;3416;53.074;8.822;2023-02-18T05:41:25;7.80;99.90
6758;DHT22;3416;53.074;8.822;2023-02-18T05:43:52;7.80;99.90
6758;DHT22;3416;53.074;8.822;2023-02-18T05:46:37;7.80;99.90
6758;DHT22;3416;53.074;8.822;2023-02-18T05:49:04;7.90;99.90
6758;DHT22;3416;53.074;8.822;2023-02-18T05:51:31;7.90;99.90
6758;DHT22;3416;53.074;8.822;2023-02-18T05:53:58;7.90;99.90
6758;DHT22;3416;53.074;8.822;2023-02-18T05:56:26;7.90;99.90
6758;DHT22;3416;53.074;8.822;2023-02-18T05:58:53;8.00;99.90
6758;DHT22;3416;53.074;8.822;2023-02-18T06:01:20;8.10;99.90
6758;DHT22;3416;53.074;8.822;2023-02-18T06:03:47;8.20;99.90
6758;DHT22;3416;53.074;8.822;2023-02-18T06:06:14;8.20;99.90
6758;DHT22;3416;53.074;8.822;2023-02-18T06:08:43;8.20;99.90
6758;DHT22;3416;53.074;8.822;2023-02-18T06:11:10;8.30;99.90
6758;DHT22;3416;53.074;8.822;2023-02-18T06:13:39;8.20;99.90
6758;DHT22;3416;53.074;8.822;2023-02-18T06:16:06;8.30;99.90
6758;DHT22;3416;53.074;8.822;2023-02-18T06:18:35;8.20;99.90
6758;DHT22;3416;53.074;8.822;2023-02-18T06:21:02;8.20;99.90
6758;DHT22;3416;53.074;8.822;2023-02-18T06:23:29;8.10;99.90
6758;DHT22;3416;53.074;8.822;2023-02-18T06:25:56;8.20;99.90
6758;DHT22;3416;53.074;8.822;2023-02-18T06:28:23;8.30;99.90
6758;DHT22;3416;53.074;8.822;2023-02-18T06:30:51;8.20;99.90
6758;DHT22;3416;53.074;8.822;2023-02-18T06:33:18;8.20;99.90
6758;DHT22;3416;53.074;8.822;2023-02-18T06:35:53;8.30;99.90
6758;DHT22;3416;53.074;8.822;2023-02-18T06:38:20;8.20;99.90
6758;DHT22;3416;53.074;8.822;2023-02-18T06:40:47;8.30;99.90
6758;DHT22;3416;53.074;8.822;2023-02-18T06:43:14;8.30;99.90
6758;DHT22;3416;53.074;8.822;2023-02-18T06:45:41;8.20;99.90
6758;DHT22;3416;53.074;8.822;2023-02-18T06:48:10;8.20;99.90
6758;DHT22;3416;53.074;8.822;2023-02-18T06:50:37;8.20;99.90
6758;DHT22;3416;53.074;8.822;2023-02-18T06:53:04;8.20;99.90
6758;DHT22;3416;53.074;8.822;2023-02-18T06:55:31;8.10;99.90
6758;DHT22;3416;53.074;8.822;2023-02-18T06:57:58;8.10;99.90
6758;DHT22;3416;53.074;8.822;2023-02-18T07:00:25;8.10;99.90
6758;DHT22;3416;53.074;8.822;2023-02-18T07:02:52;8.00;99.90
6758;DHT22;3416;53.074;8.822;2023-02-18T07:05:20;8.00;99.90
6758;DHT22;3416;53.074;8.822;2023-02-18T07:07:48;8.00;99.90
6758;DHT22;3416;53.074;8.822;2023-02-18T07:10:15;8.00;99.90
6758;DHT22;3416;53.074;8.822;2023-02-18T07:12:42;8.00;99.90
6758;DHT22;3416;53.074;8.822;2023-02-18T07:15:09;8.00;99.90
6758;DHT22;3416;53.074;8.822;2023-02-18T07:17:37;8.10;99.90
6758;DHT22;3416;53.074;8.822;2023-02-18T07:20:05;8.00;99.90
6758;DHT22;3416;53.074;8.822;2023-02-18T07:22:33;8.00;99.90
6758;DHT22;3416;53.074;8.822;2023-02-18T07:25:00;8.00;99.90
6758;DHT22;3416;53.074;8.822;2023-02-18T07:27:28;8.00;99.90
6758;DHT22;3416;53.074;8.822;2023-02-18T07:29:55;8.00;99.90
6758;DHT22;3416;53.074;8.822;2023-02-18T07:32:22;8.00;99.90
6758;DHT22;3416;53.074;8.822;2023-02-18T07:34:50;8.00;99.90
6758;DHT22;3416;53.074;8.822;2023-02-18T07:37:18;8.00;99.90
6758;DHT22;3416;53.074;8.822;2023-02-18T07:39:46;8.20;99.90
6758;DHT22;3416;53.074;8.822;2023-02-18T07:42:13;8.20;99.90
6758;DHT22;3416;53.074;8.822;2023-02-18T07:44:40;8.20;99.90
6758;DHT22;3416;53.074;8.822;2023-02-18T07:47:11;8.20;99.90
6758;DHT22;3416;53.074;8.822;2023-02-18T07:49:38;8.30;99.90
6758;DHT22;3416;53.074;8.822;2023-02-18T07:52:05;8.30;99.90
6758;DHT22;3416;53.074;8.822;2023-02-18T07:54:32;8.40;99.90
6758;DHT22;3416;53.074;8.822;2023-02-18T07:57:00;8.40;99.90
6758;DHT22;3416;53.074;8.822;2023-02-18T07:59:27;8.50;99.90
6758;DHT22;3416;53.074;8.822;2023-02-18T08:01:54;8.60;99.90
6758;DHT22;3416;53.074;8.822;2023-02-18T08:04:21;8.80;99.90
6758;DHT22;3416;53.074;8.822;2023-02-18T08:06:49;8.90;99.90
6758;DHT22;3416;53.074;8.822;2023-02-18T08:09:17;8.80;99.90
6758;DHT22;3416;53.074;8.822;2023-02-18T08:11:44;8.90;99.90
6758;DHT22;3416;53.074;8.822;2023-02-18T08:14:12;9.00;99.90
6758;DHT22;3416;53.074;8.822;2023-02-18T08:16:39;9.10;99.90
6758;DHT22;3416;53.074;8.822;2023-02-18T08:19:06;9.20;99.90
6758;DHT22;3416;53.074;8.822;2023-02-18T08:21:33;9.30;99.90
6758;DHT22;3416;53.074;8.822;2023-02-18T08:24:00;9.30;99.90
6758;DHT22;3416;53.074;8.822;2023-02-18T08:26:27;9.30;99.90
6758;DHT22;3416;53.074;8.822;2023-02-18T08:28:56;9.40;99.90
6758;DHT22;3416;53.074;8.822;2023-02-18T08:31:27;9.50;99.90
6758;DHT22;3416;53.074;8.822;2023-02-18T08:33:56;9.60;99.90
6758;DHT22;3416;53.074;8.822;2023-02-18T08:36:23;9.70;99.90
6758;DHT22;3416;53.074;8.822;2023-02-18T08:38:51;9.70;99.90
6758;DHT22;3416;53.074;8.822;2023-02-18T08:41:24;9.80;99.90
6758;DHT22;3416;53.074;8.822;2023-02-18T08:43:51;9.80;99.90
6758;DHT22;3416;53.074;8.822;2023-02-18T08:46:18;9.90;99.90
6758;DHT22;3416;53.074;8.822;2023-02-18T08:48:47;10.00;99.90
6758;DHT22;3416;53.074;8.822;2023-02-18T08:51:16;10.00;99.90
6758;DHT22;3416;53.074;8.822;2023-02-18T08:53:43;10.20;99.90
6758;DHT22;3416;53.074;8.822;2023-02-18T08:56:12;10.30;99.90
6758;DHT22;3416;53.074;8.822;2023-02-18T08:58:40;10.40;99.90
6758;DHT22;3416;53.074;8.822;2023-02-18T09:01:09;10.50;99.90
6758;DHT22;3416;53.074;8.822;2023-02-18T09:03:37;10.40;99.90
6758;DHT22;3416;53.074;8.822;2023-02-18T09:06:06;10.50;99.90
6758;DHT22;3416;53.074;8.822;2023-02-18T09:08:33;10.50;99.90
6758;DHT22;3416;53.074;8.822;2023-02-18T09:11:01;10.50;99.90
6758;DHT22;3416;53.074;8.822;2023-02-18T09:13:30;10.50;99.90
6758;DHT22;3416;53.074;8.822;2023-02-18T09:15:59;10.50;99.90
6758;DHT22;3416;53.074;8.822;2023-02-18T09:18:26;10.60;99.90
6758;DHT22;3416;53.074;8.822;2023-02-18T09:20:58;10.60;99.90
6758;DHT22;3416;53.074;8.822;2023-02-18T09:23:28;10.60;99.90
6758;DHT22;3416;53.074;8.822;2023-02-18T09:25:56;10.60;99.90
6758;DHT22;3416;53.074;8.822;2023-02-18T09:28:23;10.60;99.90
6758;DHT22;3416;53.074;8.822;2023-02-18T09:30:51;10.70;99.90
6758;DHT22;3416;53.074;8.822;2023-02-18T09:33:18;10.70;99.90
6758;DHT22;3416;53.074;8.822;2023-02-18T09:35:45;10.70;99.90
6758;DHT22;3416;53.074;8.822;2023-02-18T09:38:16;10.70;99.90
6758;DHT22;3416;53.074;8.822;2023-02-18T09:40:47;10.70;99.90
6758;DHT22;3416;53.074;8.822;2023-02-18T09:43:23;10.70;99.90
6758;DHT22;3416;53.074;8.822;2023-02-18T09:45:53;10.70;99.90
6758;DHT22;3416;53.074;8.822;2023-02-18T09:48:25;10.70;99.90
6758;DHT22;3416;53.074;8.822;2023-02-18T09:50:53;10.70;99.90
6758;DHT22;3416;53.074;8.822;2023-02-18T09:53:22;10.70;99.90
6758;DHT22;3416;53.074;8.822;2023-02-18T09:55:51;10.70;99.90
6758;DHT22;3416;53.074;8.822;2023-02-18T09:58:21;10.70;99.90
6758;DHT22;3416;53.074;8.822;2023-02-18T10:00:52;10.70;99.90
6758;DHT22;3416;53.074;8.822;2023-02-18T10:03:21;10.70;99.90
6758;DHT22;3416;53.074;8.822;2023-02-18T10:05:56;10.70;99.90
6758;DHT22;3416;53.074;8.822;2023-02-18T10:08:25;10.70;99.90
6758;DHT22;3416;53.074;8.822;2023-02-18T10:10:54;10.70;99.90
6758;DHT22;3416;53.074;8.822;2023-02-18T10:13:23;10.70;99.90
6758;DHT22;3416;53.074;8.822;2023-02-18T10:15:51;10.80;99.90
6758;DHT22;3416;53.074;8.822;2023-02-18T10:18:29;10.70;99.90
6758;DHT22;3416;53.074;8.822;2023-02-18T10:21:05;10.70;99.90
6758;DHT22;3416;53.074;8.822;2023-02-18T10:23:34;10.70;99.90
6758;DHT22;3416;53.074;8.822;2023-02-18T10:26:06;10.70;99.90
6758;DHT22;3416;53.074;8.822;2023-02-18T10:28:36;10.80;99.90
6758;DHT22;3416;53.074;8.822;2023-02-18T10:31:06;10.80;99.90
6758;DHT22;3416;53.074;8.822;2023-02-18T10:33:41;10.80;99.90
6758;DHT22;3416;53.074;8.822;2023-02-18T10:36:22;10.70;99.90
6758;DHT22;3416;53.074;8.822;2023-02-18T10:39:06;10.80;99.90
6758;DHT22;3416;53.074;8.822;2023-02-18T10:41:42;10.70;99.90
6758;DHT22;3416;53.074;8.822;2023-02-18T10:44:17;10.70;99.90
6758;DHT22;3416;53.074;8.822;2023-02-18T10:46:54;10.70;99.90
6758;DHT22;3416;53.074;8.822;2023-02-18T10:49:37;10.70;99.90
6758;DHT22;3416;53.074;8.822;2023-02-18T10:52:13;10.70;99.90
6758;DHT22;3416;53.074;8.822;2023-02-18T10:54:50;10.70;99.90
6758;DHT22;3416;53.074;8.822;2023-02-18T10:57:22;10.70;99.90
6758;DHT22;3416;53.074;8.822;2023-02-18T11:00:00;10.80;99.90
6758;DHT22;3416;53.074;8.822;2023-02-18T11:02:35;10.70;99.90
6758;DHT22;3416;53.074;8.822;2023-02-18T11:05:15;10.70;99.90
6758;DHT22;3416;53.074;8.822;2023-02-18T11:07:46;10.70;99.90
6758;DHT22;3416;53.074;8.822;2023-02-18T11:10:17;10.70;99.90
6758;DHT22;3416;53.074;8.822;2023-02-18T11:12:48;10.70;99.90
6758;DHT22;3416;53.074;8.822;2023-02-18T11:15:18;10.70;99.90
6758;DHT22;3416;53.074;8.822;2023-02-18T11:17:47;10.70;99.90
6758;DHT22;3416;53.074;8.822;2023-02-18T11:20:25;10.70;99.90
6758;DHT22;3416;53.074;8.822;2023-02-18T11:22:56;10.70;99.90
6758;DHT22;3416;53.074;8.822;2023-02-18T11:25:26;10.70;99.90
6758;DHT22;3416;53.074;8.822;2023-02-18T11:27:57;10.70;99.90
6758;DHT22;3416;53.074;8.822;2023-02-18T11:30:29;10.70;99.90
6758;DHT22;3416;53.074;8.822;2023-02-18T11:33:02;10.70;99.90
6758;DHT22;3416;53.074;8.822;2023-02-18T11:35:31;10.70;99.90
6758;DHT22;3416;53.074;8.822;2023-02-18T11:38:00;10.60;99.90
6758;DHT22;3416;53.074;8.822;2023-02-18T11:40:30;10.60;99.90
6758;DHT22;3416;53.074;8.822;2023-02-18T11:43:11;10.70;99.90
6758;DHT22;3416;53.074;8.822;2023-02-18T11:45:39;10.60;99.90
6758;DHT22;3416;53.074;8.822;2023-02-18T11:48:08;10.70;99.90
6758;DHT22;3416;53.074;8.822;2023-02-18T11:51:00;10.70;99.90
6758;DHT22;3416;53.074;8.822;2023-02-18T11:53:29;10.70;99.90
6758;DHT22;3416;53.074;8.822;2023-02-18T11:56:00;10.70;99.90
6758;DHT22;3416;53.074;8.822;2023-02-18T11:58:36;10.70;99.90
6758;DHT22;3416;53.074;8.822;2023-02-18T12:01:07;10.70;99.90
6758;DHT22;3416;53.074;8.822;2023-02-18T12:03:41;10.60;99.90
6758;DHT22;3416;53.074;8.822;2023-02-18T12:06:14;10.70;99.90
6758;DHT22;3416;53.074;8.822;2023-02-18T12:08:48;10.70;99.90
6758;DHT22;3416;53.074;8.822;2023-02-18T12:11:30;10.70;99.90
6758;DHT22;3416;53.074;8.822;2023-02-18T12:14:21;10.70;99.90
6758;DHT22;3416;53.074;8.822;2023-02-18T12:17:44;10.70;99.90
6758;DHT22;3416;53.074;8.822;2023-02-18T12:24:36;10.60;99.90
6758;DHT22;3416;53.074;8.822;2023-02-18T12:27:16;10.80;99.90
6758;DHT22;3416;53.074;8.822;2023-02-18T12:30:14;10.80;99.90
6758;DHT22;3416;53.074;8.822;2023-02-18T12:32:50;10.80;99.90
6758;DHT22;3416;53.074;8.822;2023-02-18T12:35:33;10.80;99.90
6758;DHT22;3416;53.074;8.822;2023-02-18T12:38:28;10.70;99.90
6758;DHT22;3416;53.074;8.822;2023-02-18T12:41:25;10.80;99.90
6758;DHT22;3416;53.074;8.822;2023-02-18T12:44:02;10.80;99.90
6758;DHT22;3416;53.074;8.822;2023-02-18T12:46:45;10.80;99.90
6758;DHT22;3416;53.074;8.822;2023-02-18T12:49:37;10.70;99.90
6758;DHT22;3416;53.074;8.822;2023-02-18T12:52:18;10.70;99.90
6758;DHT22;3416;53.074;8.822;2023-02-18T12:55:25;10.70;99.90
6758;DHT22;3416;53.074;8.822;2023-02-18T12:58:09;10.70;99.90
6758;DHT22;3416;53.074;8.822;2023-02-18T13:00:55;10.70;99.90
6758;DHT22;3416;53.074;8.822;2023-02-18T13:06:46;10.70;99.90
6758;DHT22;3416;53.074;8.822;2023-02-18T13:09:24;10.80;99.90
6758;DHT22;3416;53.074;8.822;2023-02-18T13:11:57;10.80;99.90
6758;DHT22;3416;53.074;8.822;2023-02-18T13:14:29;10.80;99.90
6758;DHT22;3416;53.074;8.822;2023-02-18T13:16:59;10.90;99.90
6758;DHT22;3416;53.074;8.822;2023-02-18T13:19:33;10.90;99.90
6758;DHT22;3416;53.074;8.822;2023-02-18T13:22:05;10.90;99.90
6758;DHT22;3416;53.074;8.822;2023-02-18T13:24:34;11.00;99.90
6758;DHT22;3416;53.074;8.822;2023-02-18T13:27:13;11.00;99.90
6758;DHT22;3416;53.074;8.822;2023-02-18T13:29:46;11.00;99.90
6758;DHT22;3416;53.074;8.822;2023-02-18T13:32:19;10.90;99.90
6758;DHT22;3416;53.074;8.822;2023-02-18T13:34:54;11.00;99.90
6758;DHT22;3416;53.074;8.822;2023-02-18T13:37:31;11.00;99.90
6758;DHT22;3416;53.074;8.822;2023-02-18T13:40:04;11.10;99.90
6758;DHT22;3416;53.074;8.822;2023-02-18T13:42:39;11.10;99.90
6758;DHT22;3416;53.074;8.822;2023-02-18T13:45:23;11.20;99.90
6758;DHT22;3416;53.074;8.822;2023-02-18T13:47:52;11.20;99.90
6758;DHT22;3416;53.074;8.822;2023-02-18T13:50:29;11.20;99.90
6758;DHT22;3416;53.074;8.822;2023-02-18T13:53:13;11.30;99.90
6758;DHT22;3416;53.074;8.822;2023-02-18T13:55:45;11.30;99.90
6758;DHT22;3416;53.074;8.822;2023-02-18T13:58:17;11.30;99.90
6758;DHT22;3416;53.074;8.822;2023-02-18T14:00:52;11.30;99.90
6758;DHT22;3416;53.074;8.822;2023-02-18T14:03:36;11.30;99.90
6758;DHT22;3416;53.074;8.822;2023-02-18T14:06:17;11.30;99.90
6758;DHT22;3416;53.074;8.822;2023-02-18T14:08:47;11.30;99.90
6758;DHT22;3416;53.074;8.822;2023-02-18T14:11:45;11.30;99.90
6758;DHT22;3416;53.074;8.822;2023-02-18T14:23:00;11.30;99.90
6758;DHT22;3416;53.074;8.822;2023-02-18T14:25:35;11.30;99.90
6758;DHT22;3416;53.074;8.822;2023-02-18T14:28:36;11.30;99.90
6758;DHT22;3416;53.074;8.822;2023-02-18T14:31:15;11.30;99.90
6758;DHT22;3416;53.074;8.822;2023-02-18T14:33:47;11.30;99.90
6758;DHT22;3416;53.074;8.822;2023-02-18T14:36:27;11.30;99.90
6758;DHT22;3416;53.074;8.822;2023-02-18T14:39:02;11.30;99.90
6758;DHT22;3416;53.074;8.822;2023-02-18T14:41:41;11.40;99.90
6758;DHT22;3416;53.074;8.822;2023-02-18T14:44:23;11.40;99.90
6758;DHT22;3416;53.074;8.822;2023-02-18T14:47:14;11.50;99.90
6758;DHT22;3416;53.074;8.822;2023-02-18T14:49:44;11.40;99.90
6758;DHT22;3416;53.074;8.822;2023-02-18T14:52:21;11.40;99.90
6758;DHT22;3416;53.074;8.822;2023-02-18T14:54:49;11.50;99.90
6758;DHT22;3416;53.074;8.822;2023-02-18T14:57:21;11.50;99.90
6758;DHT22;3416;53.074;8.822;2023-02-18T14:59:56;11.50;99.90
6758;DHT22;3416;53.074;8.822;2023-02-18T15:02:26;11.50;99.90
6758;DHT22;3416;53.074;8.822;2023-02-18T15:05:10;11.50;99.90
6758;DHT22;3416;53.074;8.822;2023-02-18T15:07:38;11.60;99.90
6758;DHT22;3416;53.074;8.822;2023-02-18T15:10:12;11.60;99.90
6758;DHT22;3416;53.074;8.822;2023-02-18T15:12:41;11.60;99.90
6758;DHT22;3416;53.074;8.822;2023-02-18T15:15:13;11.50;99.90
6758;DHT22;3416;53.074;8.822;2023-02-18T15:17:45;11.50;99.90
6758;DHT22;3416;53.074;8.822;2023-02-18T15:20:14;11.40;99.90
6758;DHT22;3416;53.074;8.822;2023-02-18T15:22:41;11.40;99.90
6758;DHT22;3416;53.074;8.822;2023-02-18T15:25:10;11.40;99.90
6758;DHT22;3416;53.074;8.822;2023-02-18T15:27:42;11.30;99.90
6758;DHT22;3416;53.074;8.822;2023-02-18T15:30:25;11.30;99.90
6758;DHT22;3416;53.074;8.822;2023-02-18T15:32:55;11.30;99.90
6758;DHT22;3416;53.074;8.822;2023-02-18T15:35:26;11.30;99.90
6758;DHT22;3416;53.074;8.822;2023-02-18T15:37:56;11.30;99.90
6758;DHT22;3416;53.074;8.822;2023-02-18T15:40:26;11.20;99.90
6758;DHT22;3416;53.074;8.822;2023-02-18T15:42:58;11.20;99.90
6758;DHT22;3416;53.074;8.822;2023-02-18T15:45:31;11.20;99.90
6758;DHT22;3416;53.074;8.822;2023-02-18T15:47:59;11.20;99.90
6758;DHT22;3416;53.074;8.822;2023-02-18T15:50:29;11.30;99.90
6758;DHT22;3416;53.074;8.822;2023-02-18T15:53:03;11.30;99.90
6758;DHT22;3416;53.074;8.822;2023-02-18T15:55:34;11.30;99.90
6758;DHT22;3416;53.074;8.822;2023-02-18T15:58:07;11.30;99.90
6758;DHT22;3416;53.074;8.822;2023-02-18T16:00:40;11.20;99.90
6758;DHT22;3416;53.074;8.822;2023-02-18T16:03:12;11.20;99.90
6758;DHT22;3416;53.074;8.822;2023-02-18T16:05:40;11.20;99.90
6758;DHT22;3416;53.074;8.822;2023-02-18T16:08:12;11.10;99.90
6758;DHT22;3416;53.074;8.822;2023-02-18T16:10:49;11.00;99.90
6758;DHT22;3416;53.074;8.822;2023-02-18T16:13:20;11.00;99.90
6758;DHT22;3416;53.074;8.822;2023-02-18T16:15:50;11.00;99.90
6758;DHT22;3416;53.074;8.822;2023-02-18T16:18:29;10.90;99.90
6758;DHT22;3416;53.074;8.822;2023-02-18T16:21:00;10.90;99.90
6758;DHT22;3416;53.074;8.822;2023-02-18T16:23:39;10.90;99.90
6758;DHT22;3416;53.074;8.822;2023-02-18T16:26:27;10.90;99.90
6758;DHT22;3416;53.074;8.822;2023-02-18T16:29:03;10.90;99.90
6758;DHT22;3416;53.074;8.822;2023-02-18T16:31:31;10.80;99.90
6758;DHT22;3416;53.074;8.822;2023-02-18T16:33:58;10.80;99.90
6758;DHT22;3416;53.074;8.822;2023-02-18T16:36:25;10.80;99.90
6758;DHT22;3416;53.074;8.822;2023-02-18T16:38:52;10.70;99.90
6758;DHT22;3416;53.074;8.822;2023-02-18T16:41:19;10.60;99.90
6758;DHT22;3416;53.074;8.822;2023-02-18T16:43:46;10.50;99.90
6758;DHT22;3416;53.074;8.822;2023-02-18T16:46:18;10.50;99.90
6758;DHT22;3416;53.074;8.822;2023-02-18T16:48:49;10.40;99.90
6758;DHT22;3416;53.074;8.822;2023-02-18T16:51:20;10.40;99.90
6758;DHT22;3416;53.074;8.822;2023-02-18T16:53:49;10.40;99.90
6758;DHT22;3416;53.074;8.822;2023-02-18T16:56:17;10.40;99.90
6758;DHT22;3416;53.074;8.822;2023-02-18T16:58:45;10.50;99.90
6758;DHT22;3416;53.074;8.822;2023-02-18T17:01:21;10.50;99.90
6758;DHT22;3416;53.074;8.822;2023-02-18T17:03:50;10.50;99.90